Aviation Digital Data Service (ADDS)

Output produced by METARs form (2253 UTC 23 March 2019)
found at http://www.aviationweather.gov/metar/data/
 
Forecast for: UNTT (PLOTNIKOVO/TOMSK, RU)
Text: TAF UNTT 232000Z 2321/2406 VRB01MPS 9999 SCT020
Forecast period: 2100 UTC 23 March 2019 to 0600 UTC 24 March 2019
Forecast type: FROM: standard forecast or significant change
Winds: variable direction winds at 2 MPH (2 knots; 1.0 m/s)
Visibility: 6 or more miles 10+ km)
Ceiling: at least 12,000 feet AGL
Clouds: scattered clouds at 2000 feet AGL
Weather: no significant weather forecast for this period
Text: TEMPO 2321/2404 0300 FZFG BKN002
Forecast period: 2100 UTC 23 March 2019 to 0400 UTC 24 March 2019
Forecast type: TEMPORARY: The following changes expected for less than half the time period
Visibility: 0.19 miles (0.31 km)
Ceiling: 200 feet AGL
Clouds: broken clouds at 200 feet AGL
Weather: FZFG  (freezing fog)
Text: TEMPO 2404/2406 3100 BR BKN011
Forecast period: 0400 to 0600 UTC 24 March 2019
Forecast type: TEMPORARY: The following changes expected for less than half the time period
Visibility: 1.93 miles (3.11 km)
Ceiling: 1100 feet AGL
Clouds: broken clouds at 1100 feet AGL
Weather: BR  (mist)